sensor_id;sensor_type;location;lat;lon;timestamp;P1;durP1;ratioP1;P2;durP2;ratioP2
801;SDS011;383;48.766;9.270;2023-09-08T00:01:26;11.13;;;7.00;;
801;SDS011;383;48.766;9.270;2023-09-08T00:03:53;11.60;;;7.30;;
801;SDS011;383;48.766;9.270;2023-09-08T00:06:20;14.00;;;9.00;;
801;SDS011;383;48.766;9.270;2023-09-08T00:08:46;13.03;;;6.97;;
801;SDS011;383;48.766;9.270;2023-09-08T00:11:14;11.30;;;6.93;;
801;SDS011;383;48.766;9.270;2023-09-08T00:13:41;11.00;;;7.40;;
801;SDS011;383;48.766;9.270;2023-09-08T00:16:08;13.33;;;8.00;;
801;SDS011;383;48.766;9.270;2023-09-08T00:18:35;11.83;;;7.77;;
801;SDS011;383;48.766;9.270;2023-09-08T00:21:01;13.10;;;7.67;;
801;SDS011;383;48.766;9.270;2023-09-08T00:23:28;10.80;;;7.00;;
801;SDS011;383;48.766;9.270;2023-09-08T00:25:55;14.03;;;7.20;;
801;SDS011;383;48.766;9.270;2023-09-08T00:28:24;12.23;;;7.03;;
801;SDS011;383;48.766;9.270;2023-09-08T00:30:51;18.90;;;7.80;;
801;SDS011;383;48.766;9.270;2023-09-08T00:33:18;16.47;;;7.93;;
801;SDS011;383;48.766;9.270;2023-09-08T00:35:44;11.10;;;6.43;;
801;SDS011;383;48.766;9.270;2023-09-08T00:38:15;12.17;;;6.50;;
801;SDS011;383;48.766;9.270;2023-09-08T00:40:41;11.87;;;6.93;;
801;SDS011;383;48.766;9.270;2023-09-08T00:43:08;11.17;;;6.80;;
801;SDS011;383;48.766;9.270;2023-09-08T00:45:37;12.60;;;6.87;;
801;SDS011;383;48.766;9.270;2023-09-08T00:48:06;12.27;;;6.80;;
801;SDS011;383;48.766;9.270;2023-09-08T00:50:33;16.53;;;7.20;;
801;SDS011;383;48.766;9.270;2023-09-08T00:53:01;9.40;;;6.20;;
801;SDS011;383;48.766;9.270;2023-09-08T00:55:28;10.97;;;6.47;;
801;SDS011;383;48.766;9.270;2023-09-08T00:57:55;11.47;;;7.53;;
801;SDS011;383;48.766;9.270;2023-09-08T01:00:23;9.90;;;6.50;;
801;SDS011;383;48.766;9.270;2023-09-08T01:02:51;11.43;;;6.80;;
801;SDS011;383;48.766;9.270;2023-09-08T01:05:18;8.90;;;6.13;;
801;SDS011;383;48.766;9.270;2023-09-08T01:07:46;14.50;;;7.47;;
801;SDS011;383;48.766;9.270;2023-09-08T01:10:14;13.03;;;6.43;;
801;SDS011;383;48.766;9.270;2023-09-08T01:12:41;15.67;;;7.13;;
801;SDS011;383;48.766;9.270;2023-09-08T01:15:08;11.63;;;6.57;;
801;SDS011;383;48.766;9.270;2023-09-08T01:17:35;15.23;;;7.23;;
801;SDS011;383;48.766;9.270;2023-09-08T01:20:04;10.03;;;7.10;;
801;SDS011;383;48.766;9.270;2023-09-08T01:22:40;9.97;;;6.40;;
801;SDS011;383;48.766;9.270;2023-09-08T01:25:23;13.80;;;7.60;;
801;SDS011;383;48.766;9.270;2023-09-08T01:27:52;8.83;;;6.03;;
801;SDS011;383;48.766;9.270;2023-09-08T01:30:20;9.97;;;6.70;;
801;SDS011;383;48.766;9.270;2023-09-08T01:32:48;16.07;;;6.70;;
801;SDS011;383;48.766;9.270;2023-09-08T01:35:15;12.57;;;7.03;;
801;SDS011;383;48.766;9.270;2023-09-08T01:37:44;13.97;;;6.43;;
801;SDS011;383;48.766;9.270;2023-09-08T01:46:07;16.70;;;7.90;;
801;SDS011;383;48.766;9.270;2023-09-08T01:48:34;10.67;;;7.00;;
801;SDS011;383;48.766;9.270;2023-09-08T01:51:01;11.43;;;7.20;;
801;SDS011;383;48.766;9.270;2023-09-08T01:53:27;11.40;;;7.07;;
801;SDS011;383;48.766;9.270;2023-09-08T01:55:54;13.30;;;7.97;;
801;SDS011;383;48.766;9.270;2023-09-08T01:58:21;13.00;;;7.27;;
801;SDS011;383;48.766;9.270;2023-09-08T02:00:48;10.23;;;6.23;;
801;SDS011;383;48.766;9.270;2023-09-08T02:03:17;10.87;;;6.70;;
801;SDS011;383;48.766;9.270;2023-09-08T02:05:44;13.73;;;8.07;;
801;SDS011;383;48.766;9.270;2023-09-08T02:08:11;13.43;;;6.53;;
801;SDS011;383;48.766;9.270;2023-09-08T02:10:39;11.10;;;6.87;;
801;SDS011;383;48.766;9.270;2023-09-08T02:13:06;11.70;;;6.87;;
801;SDS011;383;48.766;9.270;2023-09-08T02:15:34;15.43;;;6.67;;
801;SDS011;383;48.766;9.270;2023-09-08T02:18:01;11.30;;;6.93;;
801;SDS011;383;48.766;9.270;2023-09-08T02:20:29;11.47;;;7.33;;
801;SDS011;383;48.766;9.270;2023-09-08T02:22:56;11.83;;;7.47;;
801;SDS011;383;48.766;9.270;2023-09-08T02:25:23;13.37;;;8.07;;
801;SDS011;383;48.766;9.270;2023-09-08T02:27:50;16.90;;;6.47;;
801;SDS011;383;48.766;9.270;2023-09-08T02:30:17;13.50;;;7.80;;
801;SDS011;383;48.766;9.270;2023-09-08T02:32:44;12.10;;;7.70;;
801;SDS011;383;48.766;9.270;2023-09-08T02:35:11;10.67;;;6.87;;
801;SDS011;383;48.766;9.270;2023-09-08T02:37:39;16.90;;;7.60;;
801;SDS011;383;48.766;9.270;2023-09-08T02:40:06;9.90;;;6.10;;
801;SDS011;383;48.766;9.270;2023-09-08T02:42:33;15.33;;;9.23;;
801;SDS011;383;48.766;9.270;2023-09-08T02:45:00;14.33;;;7.80;;
801;SDS011;383;48.766;9.270;2023-09-08T02:47:26;16.03;;;6.93;;
801;SDS011;383;48.766;9.270;2023-09-08T02:49:53;14.27;;;7.63;;
801;SDS011;383;48.766;9.270;2023-09-08T02:52:20;13.13;;;8.17;;
801;SDS011;383;48.766;9.270;2023-09-08T02:54:48;15.17;;;8.43;;
801;SDS011;383;48.766;9.270;2023-09-08T02:57:14;15.47;;;8.63;;
801;SDS011;383;48.766;9.270;2023-09-08T02:59:41;12.73;;;8.10;;
801;SDS011;383;48.766;9.270;2023-09-08T03:02:08;11.27;;;7.20;;
801;SDS011;383;48.766;9.270;2023-09-08T03:04:34;15.43;;;8.00;;
801;SDS011;383;48.766;9.270;2023-09-08T03:07:01;14.77;;;8.23;;
801;SDS011;383;48.766;9.270;2023-09-08T03:09:28;14.63;;;8.60;;
801;SDS011;383;48.766;9.270;2023-09-08T03:11:56;15.77;;;7.57;;
801;SDS011;383;48.766;9.270;2023-09-08T03:14:23;21.63;;;10.23;;
801;SDS011;383;48.766;9.270;2023-09-08T03:16:49;12.63;;;7.70;;
801;SDS011;383;48.766;9.270;2023-09-08T03:19:16;11.40;;;7.53;;
801;SDS011;383;48.766;9.270;2023-09-08T03:21:43;10.77;;;6.80;;
801;SDS011;383;48.766;9.270;2023-09-08T03:24:09;13.03;;;7.80;;
801;SDS011;383;48.766;9.270;2023-09-08T03:26:36;12.53;;;6.80;;
801;SDS011;383;48.766;9.270;2023-09-08T03:29:06;17.07;;;7.30;;
801;SDS011;383;48.766;9.270;2023-09-08T03:31:32;11.33;;;7.80;;
801;SDS011;383;48.766;9.270;2023-09-08T03:33:59;11.80;;;7.10;;
801;SDS011;383;48.766;9.270;2023-09-08T03:36:26;16.73;;;6.93;;
801;SDS011;383;48.766;9.270;2023-09-08T03:38:53;11.83;;;7.57;;
801;SDS011;383;48.766;9.270;2023-09-08T03:41:19;13.50;;;7.63;;
801;SDS011;383;48.766;9.270;2023-09-08T03:43:46;15.43;;;8.27;;
801;SDS011;383;48.766;9.270;2023-09-08T03:46:15;15.07;;;7.70;;
801;SDS011;383;48.766;9.270;2023-09-08T03:48:42;18.10;;;9.63;;
801;SDS011;383;48.766;9.270;2023-09-08T03:51:08;15.33;;;8.90;;
801;SDS011;383;48.766;9.270;2023-09-08T03:53:35;17.17;;;9.57;;
801;SDS011;383;48.766;9.270;2023-09-08T03:56:02;16.40;;;8.23;;
801;SDS011;383;48.766;9.270;2023-09-08T03:58:29;13.47;;;7.90;;
801;SDS011;383;48.766;9.270;2023-09-08T04:00:56;11.23;;;7.30;;
801;SDS011;383;48.766;9.270;2023-09-08T04:03:24;15.93;;;8.27;;
801;SDS011;383;48.766;9.270;2023-09-08T04:05:50;14.67;;;8.10;;
801;SDS011;383;48.766;9.270;2023-09-08T04:08:17;15.30;;;8.67;;
801;SDS011;383;48.766;9.270;2023-09-08T04:10:44;18.30;;;8.03;;
801;SDS011;383;48.766;9.270;2023-09-08T04:13:10;13.07;;;8.70;;
801;SDS011;383;48.766;9.270;2023-09-08T04:15:37;11.63;;;7.20;;
801;SDS011;383;48.766;9.270;2023-09-08T04:18:04;16.20;;;8.00;;
801;SDS011;383;48.766;9.270;2023-09-08T04:20:33;20.53;;;8.43;;
801;SDS011;383;48.766;9.270;2023-09-08T04:23:00;14.60;;;8.50;;
801;SDS011;383;48.766;9.270;2023-09-08T04:25:26;15.60;;;8.13;;
801;SDS011;383;48.766;9.270;2023-09-08T04:27:53;13.77;;;8.37;;
801;SDS011;383;48.766;9.270;2023-09-08T04:30:20;12.67;;;7.60;;
801;SDS011;383;48.766;9.270;2023-09-08T04:32:46;14.93;;;8.90;;
801;SDS011;383;48.766;9.270;2023-09-08T04:35:13;13.87;;;8.10;;
801;SDS011;383;48.766;9.270;2023-09-08T04:37:41;20.03;;;8.87;;
801;SDS011;383;48.766;9.270;2023-09-08T04:40:08;17.97;;;8.67;;
801;SDS011;383;48.766;9.270;2023-09-08T04:42:35;16.70;;;8.20;;
801;SDS011;383;48.766;9.270;2023-09-08T04:45:02;16.57;;;8.70;;
801;SDS011;383;48.766;9.270;2023-09-08T04:47:30;17.83;;;8.50;;
801;SDS011;383;48.766;9.270;2023-09-08T04:49:56;12.83;;;8.03;;
801;SDS011;383;48.766;9.270;2023-09-08T04:52:23;12.10;;;7.20;;
801;SDS011;383;48.766;9.270;2023-09-08T04:54:51;15.80;;;9.00;;
801;SDS011;383;48.766;9.270;2023-09-08T04:57:18;14.37;;;7.70;;
801;SDS011;383;48.766;9.270;2023-09-08T04:59:44;17.20;;;7.93;;
801;SDS011;383;48.766;9.270;2023-09-08T05:02:11;18.53;;;8.80;;
801;SDS011;383;48.766;9.270;2023-09-08T05:04:38;20.43;;;9.00;;
801;SDS011;383;48.766;9.270;2023-09-08T05:07:04;10.13;;;7.37;;
801;SDS011;383;48.766;9.270;2023-09-08T05:09:31;12.37;;;8.00;;
801;SDS011;383;48.766;9.270;2023-09-08T05:12:00;18.23;;;8.83;;
801;SDS011;383;48.766;9.270;2023-09-08T05:14:27;15.87;;;9.00;;
801;SDS011;383;48.766;9.270;2023-09-08T05:16:54;15.33;;;8.27;;
801;SDS011;383;48.766;9.270;2023-09-08T05:19:21;12.80;;;8.10;;
801;SDS011;383;48.766;9.270;2023-09-08T05:21:49;14.20;;;9.23;;
801;SDS011;383;48.766;9.270;2023-09-08T05:24:16;14.60;;;8.40;;
801;SDS011;383;48.766;9.270;2023-09-08T05:26:43;11.87;;;7.40;;
801;SDS011;383;48.766;9.270;2023-09-08T05:29:11;14.97;;;7.20;;
801;SDS011;383;48.766;9.270;2023-09-08T05:31:38;15.50;;;7.70;;
801;SDS011;383;48.766;9.270;2023-09-08T05:34:05;11.63;;;7.30;;
801;SDS011;383;48.766;9.270;2023-09-08T05:36:31;16.73;;;8.00;;
801;SDS011;383;48.766;9.270;2023-09-08T05:39:00;16.57;;;8.30;;
801;SDS011;383;48.766;9.270;2023-09-08T05:41:27;15.60;;;8.93;;
801;SDS011;383;48.766;9.270;2023-09-08T05:43:54;17.93;;;8.70;;
801;SDS011;383;48.766;9.270;2023-09-08T05:46:22;24.70;;;9.27;;
801;SDS011;383;48.766;9.270;2023-09-08T05:48:49;12.37;;;7.90;;
801;SDS011;383;48.766;9.270;2023-09-08T05:51:16;14.67;;;8.57;;
801;SDS011;383;48.766;9.270;2023-09-08T05:53:42;12.60;;;8.10;;
801;SDS011;383;48.766;9.270;2023-09-08T05:56:09;18.47;;;9.40;;
801;SDS011;383;48.766;9.270;2023-09-08T05:58:36;13.87;;;8.13;;
801;SDS011;383;48.766;9.270;2023-09-08T06:01:03;14.40;;;8.30;;
801;SDS011;383;48.766;9.270;2023-09-08T06:03:31;13.93;;;8.70;;
801;SDS011;383;48.766;9.270;2023-09-08T06:05:58;14.60;;;8.20;;
801;SDS011;383;48.766;9.270;2023-09-08T06:08:25;22.27;;;9.07;;
801;SDS011;383;48.766;9.270;2023-09-08T06:10:51;16.20;;;8.97;;
801;SDS011;383;48.766;9.270;2023-09-08T06:13:18;16.20;;;9.47;;
801;SDS011;383;48.766;9.270;2023-09-08T06:15:45;19.33;;;9.60;;
801;SDS011;383;48.766;9.270;2023-09-08T06:18:12;15.93;;;8.40;;
801;SDS011;383;48.766;9.270;2023-09-08T06:20:44;24.53;;;8.67;;
801;SDS011;383;48.766;9.270;2023-09-08T06:23:12;19.20;;;8.20;;
801;SDS011;383;48.766;9.270;2023-09-08T06:25:38;14.80;;;8.63;;
801;SDS011;383;48.766;9.270;2023-09-08T06:28:05;21.10;;;10.17;;
801;SDS011;383;48.766;9.270;2023-09-08T06:30:32;19.67;;;10.40;;
801;SDS011;383;48.766;9.270;2023-09-08T06:32:59;15.80;;;9.23;;
801;SDS011;383;48.766;9.270;2023-09-08T06:35:25;18.50;;;9.07;;
801;SDS011;383;48.766;9.270;2023-09-08T06:37:54;25.30;;;10.60;;
801;SDS011;383;48.766;9.270;2023-09-08T06:40:21;15.33;;;9.73;;
801;SDS011;383;48.766;9.270;2023-09-08T06:42:47;16.13;;;9.43;;
801;SDS011;383;48.766;9.270;2023-09-08T06:45:14;21.20;;;10.30;;
801;SDS011;383;48.766;9.270;2023-09-08T06:47:41;22.20;;;10.27;;
801;SDS011;383;48.766;9.270;2023-09-08T06:50:09;19.40;;;9.67;;
801;SDS011;383;48.766;9.270;2023-09-08T06:52:35;27.40;;;10.40;;
801;SDS011;383;48.766;9.270;2023-09-08T06:55:04;18.27;;;11.43;;
801;SDS011;383;48.766;9.270;2023-09-08T06:57:31;26.43;;;10.70;;
801;SDS011;383;48.766;9.270;2023-09-08T06:59:57;17.20;;;10.47;;
801;SDS011;383;48.766;9.270;2023-09-08T07:02:24;13.97;;;9.17;;
801;SDS011;383;48.766;9.270;2023-09-08T07:04:51;27.37;;;10.10;;
801;SDS011;383;48.766;9.270;2023-09-08T07:07:17;20.13;;;11.00;;
801;SDS011;383;48.766;9.270;2023-09-08T07:09:45;17.20;;;10.30;;
801;SDS011;383;48.766;9.270;2023-09-08T07:12:13;19.60;;;11.30;;
801;SDS011;383;48.766;9.270;2023-09-08T07:14:40;25.13;;;11.80;;
801;SDS011;383;48.766;9.270;2023-09-08T07:17:07;18.30;;;9.83;;
801;SDS011;383;48.766;9.270;2023-09-08T07:19:33;21.00;;;10.40;;
801;SDS011;383;48.766;9.270;2023-09-08T07:22:00;22.63;;;11.10;;
801;SDS011;383;48.766;9.270;2023-09-08T07:24:27;19.90;;;9.67;;
801;SDS011;383;48.766;9.270;2023-09-08T07:26:53;16.90;;;9.77;;
801;SDS011;383;48.766;9.270;2023-09-08T07:29:21;16.90;;;9.80;;
801;SDS011;383;48.766;9.270;2023-09-08T07:31:48;17.60;;;10.10;;
801;SDS011;383;48.766;9.270;2023-09-08T07:34:16;18.60;;;10.70;;
801;SDS011;383;48.766;9.270;2023-09-08T07:36:43;17.60;;;10.10;;
801;SDS011;383;48.766;9.270;2023-09-08T07:39:12;20.20;;;10.60;;
801;SDS011;383;48.766;9.270;2023-09-08T07:41:39;30.80;;;15.07;;
801;SDS011;383;48.766;9.270;2023-09-08T07:44:06;21.60;;;12.90;;
801;SDS011;383;48.766;9.270;2023-09-08T07:46:34;20.33;;;11.30;;
801;SDS011;383;48.766;9.270;2023-09-08T07:49:01;15.37;;;9.73;;
801;SDS011;383;48.766;9.270;2023-09-08T07:51:28;16.43;;;9.50;;
801;SDS011;383;48.766;9.270;2023-09-08T07:53:54;15.17;;;9.07;;
801;SDS011;383;48.766;9.270;2023-09-08T07:56:21;15.20;;;9.10;;
801;SDS011;383;48.766;9.270;2023-09-08T07:58:48;18.93;;;9.90;;
801;SDS011;383;48.766;9.270;2023-09-08T08:01:15;17.50;;;9.40;;
801;SDS011;383;48.766;9.270;2023-09-08T08:03:43;17.20;;;9.37;;
801;SDS011;383;48.766;9.270;2023-09-08T08:06:10;15.90;;;9.07;;
801;SDS011;383;48.766;9.270;2023-09-08T08:08:36;13.77;;;9.23;;
801;SDS011;383;48.766;9.270;2023-09-08T08:11:07;15.07;;;8.73;;
801;SDS011;383;48.766;9.270;2023-09-08T08:13:36;18.13;;;10.07;;
801;SDS011;383;48.766;9.270;2023-09-08T08:16:02;18.40;;;10.37;;
801;SDS011;383;48.766;9.270;2023-09-08T08:18:29;15.50;;;8.83;;
801;SDS011;383;48.766;9.270;2023-09-08T08:20:57;17.90;;;8.20;;
801;SDS011;383;48.766;9.270;2023-09-08T08:23:25;10.90;;;7.97;;
801;SDS011;383;48.766;9.270;2023-09-08T08:25:52;20.23;;;9.10;;
801;SDS011;383;48.766;9.270;2023-09-08T08:28:19;10.60;;;7.80;;
801;SDS011;383;48.766;9.270;2023-09-08T08:30:46;14.60;;;8.40;;
801;SDS011;383;48.766;9.270;2023-09-08T08:33:13;15.07;;;8.07;;
801;SDS011;383;48.766;9.270;2023-09-08T08:35:39;11.50;;;7.90;;
801;SDS011;383;48.766;9.270;2023-09-08T08:38:08;11.93;;;8.03;;
801;SDS011;383;48.766;9.270;2023-09-08T08:40:37;13.90;;;7.47;;
801;SDS011;383;48.766;9.270;2023-09-08T08:43:04;11.43;;;6.90;;
801;SDS011;383;48.766;9.270;2023-09-08T08:45:31;11.03;;;8.23;;
801;SDS011;383;48.766;9.270;2023-09-08T08:47:58;14.27;;;7.40;;
801;SDS011;383;48.766;9.270;2023-09-08T08:50:27;11.07;;;7.00;;
801;SDS011;383;48.766;9.270;2023-09-08T08:52:54;9.57;;;6.10;;
801;SDS011;383;48.766;9.270;2023-09-08T08:55:22;11.90;;;7.00;;
801;SDS011;383;48.766;9.270;2023-09-08T08:57:50;12.47;;;6.47;;
801;SDS011;383;48.766;9.270;2023-09-08T09:00:17;10.77;;;7.67;;
801;SDS011;383;48.766;9.270;2023-09-08T09:02:44;13.30;;;7.40;;
801;SDS011;383;48.766;9.270;2023-09-08T09:05:14;8.10;;;5.80;;
801;SDS011;383;48.766;9.270;2023-09-08T09:07:41;10.20;;;6.33;;
801;SDS011;383;48.766;9.270;2023-09-08T09:10:08;13.93;;;6.63;;
801;SDS011;383;48.766;9.270;2023-09-08T09:12:37;8.73;;;5.90;;
801;SDS011;383;48.766;9.270;2023-09-08T09:15:05;8.63;;;6.60;;
801;SDS011;383;48.766;9.270;2023-09-08T09:17:33;10.43;;;6.63;;
801;SDS011;383;48.766;9.270;2023-09-08T09:20:13;17.57;;;9.07;;
801;SDS011;383;48.766;9.270;2023-09-08T09:22:43;10.60;;;7.20;;
801;SDS011;383;48.766;9.270;2023-09-08T09:25:09;13.17;;;7.90;;
801;SDS011;383;48.766;9.270;2023-09-08T09:27:50;11.60;;;6.53;;
801;SDS011;383;48.766;9.270;2023-09-08T09:30:17;10.77;;;6.67;;
801;SDS011;383;48.766;9.270;2023-09-08T09:32:44;10.53;;;6.87;;
801;SDS011;383;48.766;9.270;2023-09-08T09:35:14;11.90;;;6.30;;
801;SDS011;383;48.766;9.270;2023-09-08T09:37:41;9.20;;;6.47;;
801;SDS011;383;48.766;9.270;2023-09-08T09:40:08;8.53;;;6.87;;
801;SDS011;383;48.766;9.270;2023-09-08T09:42:37;9.90;;;5.90;;
801;SDS011;383;48.766;9.270;2023-09-08T09:45:07;9.50;;;5.90;;
801;SDS011;383;48.766;9.270;2023-09-08T09:47:34;12.40;;;7.80;;
801;SDS011;383;48.766;9.270;2023-09-08T09:50:01;8.30;;;6.50;;
801;SDS011;383;48.766;9.270;2023-09-08T09:52:29;10.70;;;5.97;;
801;SDS011;383;48.766;9.270;2023-09-08T09:54:56;11.53;;;6.97;;
801;SDS011;383;48.766;9.270;2023-09-08T09:57:24;11.40;;;6.40;;
801;SDS011;383;48.766;9.270;2023-09-08T09:59:51;9.73;;;6.43;;
801;SDS011;383;48.766;9.270;2023-09-08T10:02:20;15.47;;;6.43;;
801;SDS011;383;48.766;9.270;2023-09-08T10:04:48;8.60;;;6.30;;
801;SDS011;383;48.766;9.270;2023-09-08T10:07:15;9.47;;;6.27;;
801;SDS011;383;48.766;9.270;2023-09-08T10:09:43;14.00;;;6.20;;
801;SDS011;383;48.766;9.270;2023-09-08T10:12:11;10.73;;;6.63;;
801;SDS011;383;48.766;9.270;2023-09-08T10:14:41;10.33;;;7.00;;
801;SDS011;383;48.766;9.270;2023-09-08T10:17:11;10.53;;;6.20;;
801;SDS011;383;48.766;9.270;2023-09-08T10:19:44;14.33;;;7.60;;
801;SDS011;383;48.766;9.270;2023-09-08T10:22:16;9.87;;;6.37;;
801;SDS011;383;48.766;9.270;2023-09-08T10:24:49;9.80;;;6.90;;
801;SDS011;383;48.766;9.270;2023-09-08T10:27:17;11.50;;;7.00;;
801;SDS011;383;48.766;9.270;2023-09-08T10:29:46;10.10;;;6.60;;
801;SDS011;383;48.766;9.270;2023-09-08T10:32:14;11.03;;;6.80;;
801;SDS011;383;48.766;9.270;2023-09-08T10:34:44;10.93;;;5.90;;
801;SDS011;383;48.766;9.270;2023-09-08T10:37:18;9.20;;;5.90;;
801;SDS011;383;48.766;9.270;2023-09-08T10:39:46;8.17;;;6.40;;
801;SDS011;383;48.766;9.270;2023-09-08T10:42:22;12.53;;;7.30;;
801;SDS011;383;48.766;9.270;2023-09-08T10:47:54;10.60;;;6.13;;
801;SDS011;383;48.766;9.270;2023-09-08T10:50:29;11.00;;;7.03;;
801;SDS011;383;48.766;9.270;2023-09-08T10:53:04;11.33;;;6.73;;
801;SDS011;383;48.766;9.270;2023-09-08T10:55:44;10.00;;;6.70;;
801;SDS011;383;48.766;9.270;2023-09-08T10:58:17;10.40;;;5.83;;
801;SDS011;383;48.766;9.270;2023-09-08T11:00:46;9.00;;;5.53;;
801;SDS011;383;48.766;9.270;2023-09-08T11:03:13;9.23;;;6.93;;
801;SDS011;383;48.766;9.270;2023-09-08T11:05:52;13.37;;;6.60;;
801;SDS011;383;48.766;9.270;2023-09-08T11:08:19;10.73;;;6.37;;
801;SDS011;383;48.766;9.270;2023-09-08T11:10:46;8.90;;;6.57;;
801;SDS011;383;48.766;9.270;2023-09-08T11:13:12;11.83;;;6.97;;
801;SDS011;383;48.766;9.270;2023-09-08T11:15:39;9.13;;;6.83;;
801;SDS011;383;48.766;9.270;2023-09-08T11:18:06;8.77;;;6.17;;
801;SDS011;383;48.766;9.270;2023-09-08T11:20:33;8.73;;;6.97;;
801;SDS011;383;48.766;9.270;2023-09-08T11:23:02;7.63;;;6.43;;
801;SDS011;383;48.766;9.270;2023-09-08T11:25:31;10.37;;;7.20;;
801;SDS011;383;48.766;9.270;2023-09-08T11:27:58;9.97;;;6.17;;
801;SDS011;383;48.766;9.270;2023-09-08T11:30:25;11.17;;;7.67;;
801;SDS011;383;48.766;9.270;2023-09-08T11:32:52;10.53;;;7.10;;
801;SDS011;383;48.766;9.270;2023-09-08T11:35:19;7.80;;;6.40;;
801;SDS011;383;48.766;9.270;2023-09-08T11:37:46;14.10;;;7.33;;
801;SDS011;383;48.766;9.270;2023-09-08T11:40:16;11.73;;;7.33;;
801;SDS011;383;48.766;9.270;2023-09-08T11:42:44;9.40;;;6.23;;
801;SDS011;383;48.766;9.270;2023-09-08T11:45:11;13.43;;;6.73;;
801;SDS011;383;48.766;9.270;2023-09-08T11:47:40;10.07;;;7.00;;
801;SDS011;383;48.766;9.270;2023-09-08T11:50:08;10.53;;;6.80;;
801;SDS011;383;48.766;9.270;2023-09-08T11:52:36;10.20;;;6.20;;
801;SDS011;383;48.766;9.270;2023-09-08T11:55:04;9.40;;;6.27;;
801;SDS011;383;48.766;9.270;2023-09-08T11:57:32;9.90;;;6.47;;
801;SDS011;383;48.766;9.270;2023-09-08T12:00:00;9.37;;;6.73;;
801;SDS011;383;48.766;9.270;2023-09-08T12:02:33;10.70;;;6.77;;
801;SDS011;383;48.766;9.270;2023-09-08T12:05:01;10.60;;;5.70;;
801;SDS011;383;48.766;9.270;2023-09-08T12:07:28;9.27;;;6.73;;
801;SDS011;383;48.766;9.270;2023-09-08T12:09:56;17.23;;;6.53;;
801;SDS011;383;48.766;9.270;2023-09-08T12:12:24;15.10;;;6.63;;
801;SDS011;383;48.766;9.270;2023-09-08T12:14:52;10.90;;;7.50;;
801;SDS011;383;48.766;9.270;2023-09-08T12:17:20;9.43;;;6.70;;
801;SDS011;383;48.766;9.270;2023-09-08T12:19:49;7.90;;;5.67;;
801;SDS011;383;48.766;9.270;2023-09-08T12:22:16;10.00;;;6.30;;
801;SDS011;383;48.766;9.270;2023-09-08T12:24:49;11.10;;;6.93;;
801;SDS011;383;48.766;9.270;2023-09-08T12:27:22;10.90;;;6.80;;
801;SDS011;383;48.766;9.270;2023-09-08T12:29:54;9.90;;;6.83;;
801;SDS011;383;48.766;9.270;2023-09-08T12:32:21;8.93;;;5.60;;
801;SDS011;383;48.766;9.270;2023-09-08T12:34:49;9.60;;;6.50;;
801;SDS011;383;48.766;9.270;2023-09-08T12:37:19;11.10;;;6.53;;
801;SDS011;383;48.766;9.270;2023-09-08T12:39:46;10.40;;;5.97;;
801;SDS011;383;48.766;9.270;2023-09-08T12:42:13;10.47;;;7.37;;
801;SDS011;383;48.766;9.270;2023-09-08T12:44:40;9.17;;;7.20;;
801;SDS011;383;48.766;9.270;2023-09-08T12:47:08;11.93;;;6.93;;
801;SDS011;383;48.766;9.270;2023-09-08T12:49:36;10.40;;;7.43;;
801;SDS011;383;48.766;9.270;2023-09-08T12:52:02;8.40;;;6.50;;
801;SDS011;383;48.766;9.270;2023-09-08T12:54:30;10.70;;;7.23;;
801;SDS011;383;48.766;9.270;2023-09-08T12:56:57;9.30;;;6.13;;
801;SDS011;383;48.766;9.270;2023-09-08T12:59:23;8.57;;;5.90;;
801;SDS011;383;48.766;9.270;2023-09-08T13:01:50;8.97;;;7.03;;
801;SDS011;383;48.766;9.270;2023-09-08T13:04:18;7.67;;;6.00;;
801;SDS011;383;48.766;9.270;2023-09-08T13:06:45;8.47;;;6.30;;
801;SDS011;383;48.766;9.270;2023-09-08T13:09:12;8.83;;;6.40;;
801;SDS011;383;48.766;9.270;2023-09-08T13:11:38;9.20;;;6.10;;
801;SDS011;383;48.766;9.270;2023-09-08T13:14:05;10.30;;;6.00;;
801;SDS011;383;48.766;9.270;2023-09-08T13:16:32;9.07;;;5.60;;
801;SDS011;383;48.766;9.270;2023-09-08T13:18:59;11.30;;;6.63;;
801;SDS011;383;48.766;9.270;2023-09-08T13:21:27;8.00;;;6.43;;
801;SDS011;383;48.766;9.270;2023-09-08T13:23:54;10.43;;;6.73;;
801;SDS011;383;48.766;9.270;2023-09-08T13:26:20;8.63;;;6.10;;
801;SDS011;383;48.766;9.270;2023-09-08T13:28:47;8.70;;;6.57;;
801;SDS011;383;48.766;9.270;2023-09-08T13:31:14;9.03;;;5.60;;
801;SDS011;383;48.766;9.270;2023-09-08T13:33:40;8.57;;;6.70;;
801;SDS011;383;48.766;9.270;2023-09-08T13:36:07;9.47;;;6.07;;
801;SDS011;383;48.766;9.270;2023-09-08T13:38:35;7.77;;;6.10;;
801;SDS011;383;48.766;9.270;2023-09-08T13:41:02;11.80;;;5.77;;
801;SDS011;383;48.766;9.270;2023-09-08T13:43:28;8.87;;;6.07;;
801;SDS011;383;48.766;9.270;2023-09-08T13:45:55;8.80;;;6.80;;
801;SDS011;383;48.766;9.270;2023-09-08T13:48:22;10.73;;;6.10;;
801;SDS011;383;48.766;9.270;2023-09-08T13:50:48;9.47;;;6.00;;
801;SDS011;383;48.766;9.270;2023-09-08T13:53:15;17.03;;;7.07;;
801;SDS011;383;48.766;9.270;2023-09-08T13:55:43;7.23;;;5.60;;
801;SDS011;383;48.766;9.270;2023-09-08T13:58:10;6.90;;;5.90;;
801;SDS011;383;48.766;9.270;2023-09-08T14:00:38;8.47;;;5.90;;
801;SDS011;383;48.766;9.270;2023-09-08T14:03:05;6.13;;;5.20;;
801;SDS011;383;48.766;9.270;2023-09-08T14:05:32;7.30;;;5.77;;
801;SDS011;383;48.766;9.270;2023-09-08T14:07:59;7.27;;;5.40;;
801;SDS011;383;48.766;9.270;2023-09-08T14:10:26;7.83;;;5.40;;
801;SDS011;383;48.766;9.270;2023-09-08T14:12:54;6.93;;;5.60;;
801;SDS011;383;48.766;9.270;2023-09-08T14:15:21;8.17;;;5.77;;
801;SDS011;383;48.766;9.270;2023-09-08T14:17:47;11.27;;;5.40;;
801;SDS011;383;48.766;9.270;2023-09-08T14:20:14;13.10;;;6.57;;
801;SDS011;383;48.766;9.270;2023-09-08T14:22:41;8.10;;;5.60;;
801;SDS011;383;48.766;9.270;2023-09-08T14:25:08;7.60;;;5.60;;
801;SDS011;383;48.766;9.270;2023-09-08T14:27:35;8.20;;;5.67;;
801;SDS011;383;48.766;9.270;2023-09-08T14:30:04;9.47;;;5.97;;
801;SDS011;383;48.766;9.270;2023-09-08T14:32:31;7.20;;;5.43;;
801;SDS011;383;48.766;9.270;2023-09-08T14:34:58;7.20;;;4.80;;
801;SDS011;383;48.766;9.270;2023-09-08T14:37:25;7.07;;;5.73;;
801;SDS011;383;48.766;9.270;2023-09-08T14:39:52;9.93;;;6.63;;
801;SDS011;383;48.766;9.270;2023-09-08T14:42:18;8.70;;;6.23;;
801;SDS011;383;48.766;9.270;2023-09-08T14:44:45;9.47;;;5.77;;
801;SDS011;383;48.766;9.270;2023-09-08T14:47:13;10.07;;;6.23;;
801;SDS011;383;48.766;9.270;2023-09-08T14:49:40;9.40;;;6.07;;
801;SDS011;383;48.766;9.270;2023-09-08T14:52:07;9.90;;;5.27;;
801;SDS011;383;48.766;9.270;2023-09-08T14:54:34;8.23;;;6.17;;
801;SDS011;383;48.766;9.270;2023-09-08T14:57:01;15.20;;;5.87;;
801;SDS011;383;48.766;9.270;2023-09-08T14:59:28;7.17;;;5.40;;
801;SDS011;383;48.766;9.270;2023-09-08T15:01:55;8.53;;;5.60;;
801;SDS011;383;48.766;9.270;2023-09-08T15:04:23;10.83;;;6.30;;
801;SDS011;383;48.766;9.270;2023-09-08T15:06:50;9.13;;;5.83;;
801;SDS011;383;48.766;9.270;2023-09-08T15:09:17;8.13;;;5.63;;
801;SDS011;383;48.766;9.270;2023-09-08T15:11:43;7.93;;;5.57;;
801;SDS011;383;48.766;9.270;2023-09-08T15:14:10;9.70;;;5.83;;
801;SDS011;383;48.766;9.270;2023-09-08T15:16:37;17.40;;;6.77;;
801;SDS011;383;48.766;9.270;2023-09-08T15:19:12;12.00;;;6.23;;
801;SDS011;383;48.766;9.270;2023-09-08T15:21:40;7.70;;;5.33;;
801;SDS011;383;48.766;9.270;2023-09-08T15:24:07;10.10;;;6.60;;
801;SDS011;383;48.766;9.270;2023-09-08T15:26:34;8.63;;;5.47;;
801;SDS011;383;48.766;9.270;2023-09-08T15:29:00;7.20;;;5.10;;
801;SDS011;383;48.766;9.270;2023-09-08T15:31:27;5.93;;;5.30;;
801;SDS011;383;48.766;9.270;2023-09-08T15:33:54;10.10;;;5.73;;
801;SDS011;383;48.766;9.270;2023-09-08T15:36:20;10.00;;;6.67;;
801;SDS011;383;48.766;9.270;2023-09-08T15:38:49;10.90;;;6.70;;
801;SDS011;383;48.766;9.270;2023-09-08T15:41:16;8.23;;;6.17;;
801;SDS011;383;48.766;9.270;2023-09-08T15:43:49;7.70;;;5.80;;